sensor_id;sensor_type;location;lat;lon;timestamp;P1;durP1;ratioP1;P2;durP2;ratioP2
13834;SDS011;6988;52.614;13.500;2023-12-20T00:02:28;8.23;;;7.30;;
13834;SDS011;6988;52.614;13.500;2023-12-20T00:07:20;8.30;;;6.93;;
13834;SDS011;6988;52.614;13.500;2023-12-20T00:12:12;8.23;;;7.00;;
13834;SDS011;6988;52.614;13.500;2023-12-20T00:17:04;9.17;;;7.40;;
13834;SDS011;6988;52.614;13.500;2023-12-20T00:21:57;8.20;;;7.13;;
13834;SDS011;6988;52.614;13.500;2023-12-20T00:26:50;7.93;;;7.10;;
13834;SDS011;6988;52.614;13.500;2023-12-20T00:31:42;8.70;;;7.20;;
13834;SDS011;6988;52.614;13.500;2023-12-20T00:36:34;7.73;;;6.90;;
13834;SDS011;6988;52.614;13.500;2023-12-20T00:41:27;8.43;;;7.40;;
13834;SDS011;6988;52.614;13.500;2023-12-20T00:46:19;7.93;;;7.13;;
13834;SDS011;6988;52.614;13.500;2023-12-20T00:51:11;8.47;;;6.70;;
13834;SDS011;6988;52.614;13.500;2023-12-20T00:56:04;7.33;;;6.40;;
13834;SDS011;6988;52.614;13.500;2023-12-20T01:00:57;7.50;;;6.70;;
13834;SDS011;6988;52.614;13.500;2023-12-20T01:05:49;7.03;;;6.07;;
13834;SDS011;6988;52.614;13.500;2023-12-20T01:10:41;7.17;;;6.30;;
13834;SDS011;6988;52.614;13.500;2023-12-20T01:15:33;7.37;;;6.30;;
13834;SDS011;6988;52.614;13.500;2023-12-20T01:20:27;8.00;;;6.90;;
13834;SDS011;6988;52.614;13.500;2023-12-20T01:25:19;7.80;;;7.00;;
13834;SDS011;6988;52.614;13.500;2023-12-20T01:30:11;7.50;;;6.70;;
13834;SDS011;6988;52.614;13.500;2023-12-20T01:35:04;7.93;;;6.67;;
13834;SDS011;6988;52.614;13.500;2023-12-20T01:39:57;7.50;;;6.27;;
13834;SDS011;6988;52.614;13.500;2023-12-20T01:44:49;7.70;;;6.50;;
13834;SDS011;6988;52.614;13.500;2023-12-20T01:49:41;7.47;;;6.40;;
13834;SDS011;6988;52.614;13.500;2023-12-20T01:54:34;6.47;;;5.70;;
13834;SDS011;6988;52.614;13.500;2023-12-20T01:59:28;7.33;;;5.30;;
13834;SDS011;6988;52.614;13.500;2023-12-20T02:04:22;6.77;;;5.13;;
13834;SDS011;6988;52.614;13.500;2023-12-20T02:09:15;4.97;;;4.30;;
13834;SDS011;6988;52.614;13.500;2023-12-20T02:14:07;5.03;;;4.50;;
13834;SDS011;6988;52.614;13.500;2023-12-20T02:19:01;5.97;;;4.67;;
13834;SDS011;6988;52.614;13.500;2023-12-20T02:23:56;8.30;;;5.10;;
13834;SDS011;6988;52.614;13.500;2023-12-20T02:28:48;5.50;;;4.80;;
13834;SDS011;6988;52.614;13.500;2023-12-20T02:33:40;5.43;;;4.30;;
13834;SDS011;6988;52.614;13.500;2023-12-20T02:38:33;5.87;;;3.63;;
13834;SDS011;6988;52.614;13.500;2023-12-20T02:43:26;4.93;;;3.70;;
13834;SDS011;6988;52.614;13.500;2023-12-20T02:48:18;3.67;;;2.97;;
13834;SDS011;6988;52.614;13.500;2023-12-20T02:53:10;4.50;;;3.03;;
13834;SDS011;6988;52.614;13.500;2023-12-20T02:58:02;5.97;;;3.07;;
13834;SDS011;6988;52.614;13.500;2023-12-20T03:02:56;4.17;;;2.90;;
13834;SDS011;6988;52.614;13.500;2023-12-20T03:07:49;5.13;;;2.83;;
13834;SDS011;6988;52.614;13.500;2023-12-20T03:12:41;5.83;;;3.00;;
13834;SDS011;6988;52.614;13.500;2023-12-20T03:17:33;7.60;;;3.20;;
13834;SDS011;6988;52.614;13.500;2023-12-20T03:22:27;6.60;;;2.80;;
13834;SDS011;6988;52.614;13.500;2023-12-20T03:27:19;5.93;;;2.27;;
13834;SDS011;6988;52.614;13.500;2023-12-20T03:32:11;7.63;;;2.87;;
13834;SDS011;6988;52.614;13.500;2023-12-20T03:37:03;7.13;;;2.70;;
13834;SDS011;6988;52.614;13.500;2023-12-20T03:41:56;7.27;;;2.67;;
13834;SDS011;6988;52.614;13.500;2023-12-20T03:46:48;11.10;;;3.10;;
13834;SDS011;6988;52.614;13.500;2023-12-20T03:51:40;4.97;;;2.27;;
13834;SDS011;6988;52.614;13.500;2023-12-20T03:56:33;6.00;;;2.53;;
13834;SDS011;6988;52.614;13.500;2023-12-20T04:01:26;8.63;;;2.87;;
13834;SDS011;6988;52.614;13.500;2023-12-20T04:06:18;10.60;;;2.90;;
13834;SDS011;6988;52.614;13.500;2023-12-20T04:11:10;8.33;;;2.70;;
13834;SDS011;6988;52.614;13.500;2023-12-20T04:16:02;8.50;;;2.80;;
13834;SDS011;6988;52.614;13.500;2023-12-20T04:20:56;9.27;;;2.50;;
13834;SDS011;6988;52.614;13.500;2023-12-20T04:25:48;6.63;;;2.27;;
13834;SDS011;6988;52.614;13.500;2023-12-20T04:30:40;8.10;;;2.33;;
13834;SDS011;6988;52.614;13.500;2023-12-20T04:35:33;8.30;;;2.23;;
13834;SDS011;6988;52.614;13.500;2023-12-20T04:40:28;7.30;;;2.30;;
13834;SDS011;6988;52.614;13.500;2023-12-20T04:45:19;9.37;;;1.93;;
13834;SDS011;6988;52.614;13.500;2023-12-20T04:50:14;10.77;;;2.30;;
13834;SDS011;6988;52.614;13.500;2023-12-20T04:55:07;9.47;;;1.90;;
13834;SDS011;6988;52.614;13.500;2023-12-20T05:00:03;11.00;;;2.17;;
13834;SDS011;6988;52.614;13.500;2023-12-20T05:04:58;12.60;;;2.27;;
13834;SDS011;6988;52.614;13.500;2023-12-20T05:09:50;8.07;;;2.00;;
13834;SDS011;6988;52.614;13.500;2023-12-20T05:14:42;9.73;;;2.50;;
13834;SDS011;6988;52.614;13.500;2023-12-20T05:19:35;11.53;;;2.20;;
13834;SDS011;6988;52.614;13.500;2023-12-20T05:24:27;8.87;;;2.30;;
13834;SDS011;6988;52.614;13.500;2023-12-20T05:29:19;8.67;;;2.10;;
13834;SDS011;6988;52.614;13.500;2023-12-20T05:34:12;5.60;;;2.03;;
13834;SDS011;6988;52.614;13.500;2023-12-20T05:39:09;8.30;;;2.23;;
13834;SDS011;6988;52.614;13.500;2023-12-20T05:44:04;10.93;;;2.53;;
13834;SDS011;6988;52.614;13.500;2023-12-20T05:48:58;9.87;;;2.20;;
13834;SDS011;6988;52.614;13.500;2023-12-20T05:53:50;10.73;;;2.23;;
13834;SDS011;6988;52.614;13.500;2023-12-20T05:58:43;11.77;;;2.30;;
13834;SDS011;6988;52.614;13.500;2023-12-20T06:03:35;6.30;;;1.90;;
13834;SDS011;6988;52.614;13.500;2023-12-20T06:08:27;10.10;;;2.70;;
13834;SDS011;6988;52.614;13.500;2023-12-20T06:13:19;9.67;;;2.37;;
13834;SDS011;6988;52.614;13.500;2023-12-20T06:18:12;7.03;;;1.97;;
13834;SDS011;6988;52.614;13.500;2023-12-20T06:23:04;9.63;;;2.33;;
13834;SDS011;6988;52.614;13.500;2023-12-20T06:27:56;10.23;;;1.97;;
13834;SDS011;6988;52.614;13.500;2023-12-20T06:32:48;12.80;;;2.40;;
13834;SDS011;6988;52.614;13.500;2023-12-20T06:37:41;8.43;;;2.03;;
13834;SDS011;6988;52.614;13.500;2023-12-20T06:42:33;13.90;;;2.30;;
13834;SDS011;6988;52.614;13.500;2023-12-20T06:47:25;6.73;;;2.30;;
13834;SDS011;6988;52.614;13.500;2023-12-20T06:52:18;10.33;;;2.60;;
13834;SDS011;6988;52.614;13.500;2023-12-20T06:57:11;9.43;;;2.00;;
13834;SDS011;6988;52.614;13.500;2023-12-20T07:02:03;7.20;;;2.50;;
13834;SDS011;6988;52.614;13.500;2023-12-20T07:06:55;11.67;;;2.20;;
13834;SDS011;6988;52.614;13.500;2023-12-20T07:11:50;10.43;;;2.80;;
13834;SDS011;6988;52.614;13.500;2023-12-20T07:16:43;12.33;;;2.77;;
13834;SDS011;6988;52.614;13.500;2023-12-20T07:21:35;10.93;;;2.60;;
13834;SDS011;6988;52.614;13.500;2023-12-20T07:26:27;9.20;;;2.63;;
13834;SDS011;6988;52.614;13.500;2023-12-20T07:31:19;9.77;;;3.00;;
13834;SDS011;6988;52.614;13.500;2023-12-20T07:36:12;7.97;;;2.73;;
13834;SDS011;6988;52.614;13.500;2023-12-20T07:41:04;10.43;;;2.97;;
13834;SDS011;6988;52.614;13.500;2023-12-20T07:45:56;12.13;;;3.70;;
13834;SDS011;6988;52.614;13.500;2023-12-20T07:50:48;10.93;;;3.20;;
13834;SDS011;6988;52.614;13.500;2023-12-20T07:55:42;10.93;;;3.03;;
13834;SDS011;6988;52.614;13.500;2023-12-20T08:00:34;14.43;;;3.27;;
13834;SDS011;6988;52.614;13.500;2023-12-20T08:05:25;13.30;;;2.80;;
13834;SDS011;6988;52.614;13.500;2023-12-20T08:10:17;9.53;;;2.70;;
13834;SDS011;6988;52.614;13.500;2023-12-20T08:15:11;13.60;;;3.40;;
13834;SDS011;6988;52.614;13.500;2023-12-20T08:20:03;13.20;;;3.70;;
13834;SDS011;6988;52.614;13.500;2023-12-20T08:25:06;8.90;;;2.60;;
13834;SDS011;6988;52.614;13.500;2023-12-20T08:30:15;7.47;;;2.40;;
13834;SDS011;6988;52.614;13.500;2023-12-20T08:35:14;11.63;;;2.50;;
13834;SDS011;6988;52.614;13.500;2023-12-20T08:40:09;10.53;;;2.40;;
13834;SDS011;6988;52.614;13.500;2023-12-20T08:45:02;12.77;;;2.17;;
13834;SDS011;6988;52.614;13.500;2023-12-20T08:49:59;11.80;;;2.70;;
13834;SDS011;6988;52.614;13.500;2023-12-20T08:54:51;8.50;;;2.60;;
13834;SDS011;6988;52.614;13.500;2023-12-20T08:59:45;11.77;;;2.30;;
13834;SDS011;6988;52.614;13.500;2023-12-20T09:04:37;9.67;;;2.47;;
13834;SDS011;6988;52.614;13.500;2023-12-20T09:09:31;9.63;;;2.20;;
13834;SDS011;6988;52.614;13.500;2023-12-20T09:14:23;10.60;;;2.87;;
13834;SDS011;6988;52.614;13.500;2023-12-20T09:19:18;9.40;;;2.37;;
13834;SDS011;6988;52.614;13.500;2023-12-20T09:24:09;8.57;;;1.77;;
13834;SDS011;6988;52.614;13.500;2023-12-20T09:29:03;10.80;;;2.43;;
13834;SDS011;6988;52.614;13.500;2023-12-20T09:33:56;13.10;;;2.47;;
13834;SDS011;6988;52.614;13.500;2023-12-20T09:38:49;11.13;;;2.10;;
13834;SDS011;6988;52.614;13.500;2023-12-20T09:43:41;7.33;;;1.93;;
13834;SDS011;6988;52.614;13.500;2023-12-20T09:48:35;9.43;;;2.10;;
13834;SDS011;6988;52.614;13.500;2023-12-20T09:53:28;8.57;;;2.00;;
13834;SDS011;6988;52.614;13.500;2023-12-20T09:58:24;11.83;;;2.87;;
13834;SDS011;6988;52.614;13.500;2023-12-20T10:03:16;8.20;;;2.10;;
13834;SDS011;6988;52.614;13.500;2023-12-20T10:08:14;10.13;;;2.20;;
13834;SDS011;6988;52.614;13.500;2023-12-20T10:13:06;12.93;;;2.60;;
13834;SDS011;6988;52.614;13.500;2023-12-20T10:18:01;12.10;;;2.10;;
13834;SDS011;6988;52.614;13.500;2023-12-20T10:22:55;8.30;;;2.30;;
13834;SDS011;6988;52.614;13.500;2023-12-20T10:27:49;8.30;;;2.07;;
13834;SDS011;6988;52.614;13.500;2023-12-20T10:32:41;14.77;;;2.60;;
13834;SDS011;6988;52.614;13.500;2023-12-20T10:37:34;10.13;;;2.27;;
13834;SDS011;6988;52.614;13.500;2023-12-20T10:42:27;9.97;;;2.47;;
13834;SDS011;6988;52.614;13.500;2023-12-20T10:47:23;9.20;;;2.30;;
13834;SDS011;6988;52.614;13.500;2023-12-20T10:52:17;12.90;;;2.87;;
13834;SDS011;6988;52.614;13.500;2023-12-20T10:57:10;13.93;;;2.83;;
13834;SDS011;6988;52.614;13.500;2023-12-20T11:02:03;16.13;;;3.23;;
13834;SDS011;6988;52.614;13.500;2023-12-20T11:06:58;9.97;;;2.37;;
13834;SDS011;6988;52.614;13.500;2023-12-20T11:12:13;9.23;;;2.67;;
13834;SDS011;6988;52.614;13.500;2023-12-20T11:17:15;15.13;;;2.50;;
13834;SDS011;6988;52.614;13.500;2023-12-20T11:22:09;12.17;;;2.50;;
13834;SDS011;6988;52.614;13.500;2023-12-20T11:27:02;9.17;;;2.03;;
13834;SDS011;6988;52.614;13.500;2023-12-20T11:31:54;13.00;;;2.83;;
13834;SDS011;6988;52.614;13.500;2023-12-20T11:36:46;11.23;;;2.50;;
13834;SDS011;6988;52.614;13.500;2023-12-20T11:41:39;12.90;;;3.10;;
13834;SDS011;6988;52.614;13.500;2023-12-20T11:46:31;9.23;;;2.73;;
13834;SDS011;6988;52.614;13.500;2023-12-20T11:51:23;13.03;;;2.70;;
13834;SDS011;6988;52.614;13.500;2023-12-20T11:56:15;11.77;;;2.43;;
13834;SDS011;6988;52.614;13.500;2023-12-20T12:01:09;15.10;;;2.70;;
13834;SDS011;6988;52.614;13.500;2023-12-20T12:06:01;10.77;;;3.37;;
13834;SDS011;6988;52.614;13.500;2023-12-20T12:10:54;12.37;;;2.43;;
13834;SDS011;6988;52.614;13.500;2023-12-20T12:15:47;11.00;;;2.60;;
13834;SDS011;6988;52.614;13.500;2023-12-20T12:20:41;10.30;;;2.40;;
13834;SDS011;6988;52.614;13.500;2023-12-20T12:25:34;7.93;;;2.30;;
13834;SDS011;6988;52.614;13.500;2023-12-20T12:30:27;9.37;;;2.50;;
13834;SDS011;6988;52.614;13.500;2023-12-20T12:35:20;11.10;;;2.40;;
13834;SDS011;6988;52.614;13.500;2023-12-20T12:40:15;8.70;;;2.53;;
13834;SDS011;6988;52.614;13.500;2023-12-20T12:45:10;7.13;;;2.10;;
13834;SDS011;6988;52.614;13.500;2023-12-20T12:50:03;10.20;;;2.67;;
13834;SDS011;6988;52.614;13.500;2023-12-20T12:54:55;5.33;;;2.17;;
13834;SDS011;6988;52.614;13.500;2023-12-20T12:59:49;6.33;;;2.53;;
13834;SDS011;6988;52.614;13.500;2023-12-20T13:04:41;9.10;;;2.60;;
13834;SDS011;6988;52.614;13.500;2023-12-20T13:09:33;11.20;;;2.93;;
13834;SDS011;6988;52.614;13.500;2023-12-20T13:14:25;8.80;;;2.80;;
13834;SDS011;6988;52.614;13.500;2023-12-20T13:19:18;9.27;;;3.00;;
13834;SDS011;6988;52.614;13.500;2023-12-20T13:24:11;9.40;;;2.67;;
13834;SDS011;6988;52.614;13.500;2023-12-20T13:29:03;3.50;;;0.93;;
13834;SDS011;6988;52.614;13.500;2023-12-20T13:33:56;4.13;;;1.70;;
13834;SDS011;6988;52.614;13.500;2023-12-20T13:38:50;4.37;;;1.53;;
13834;SDS011;6988;52.614;13.500;2023-12-20T13:43:42;7.30;;;1.77;;
13834;SDS011;6988;52.614;13.500;2023-12-20T13:48:33;4.30;;;1.57;;
13834;SDS011;6988;52.614;13.500;2023-12-20T13:53:26;3.67;;;1.20;;
13834;SDS011;6988;52.614;13.500;2023-12-20T13:58:21;3.63;;;1.67;;
13834;SDS011;6988;52.614;13.500;2023-12-20T14:03:12;4.40;;;1.70;;
13834;SDS011;6988;52.614;13.500;2023-12-20T14:08:05;5.30;;;1.20;;
13834;SDS011;6988;52.614;13.500;2023-12-20T14:12:58;3.70;;;0.90;;
13834;SDS011;6988;52.614;13.500;2023-12-20T14:17:53;4.90;;;1.27;;
13834;SDS011;6988;52.614;13.500;2023-12-20T14:22:46;3.50;;;1.00;;
13834;SDS011;6988;52.614;13.500;2023-12-20T14:27:38;4.17;;;0.87;;
13834;SDS011;6988;52.614;13.500;2023-12-20T14:32:30;2.57;;;0.97;;
13834;SDS011;6988;52.614;13.500;2023-12-20T14:37:24;2.30;;;0.80;;
13834;SDS011;6988;52.614;13.500;2023-12-20T14:42:16;3.93;;;0.97;;
13834;SDS011;6988;52.614;13.500;2023-12-20T14:47:09;2.47;;;1.00;;
13834;SDS011;6988;52.614;13.500;2023-12-20T14:52:01;4.60;;;1.03;;
13834;SDS011;6988;52.614;13.500;2023-12-20T14:56:59;3.43;;;1.03;;
13834;SDS011;6988;52.614;13.500;2023-12-20T15:01:51;2.27;;;0.80;;
13834;SDS011;6988;52.614;13.500;2023-12-20T15:06:43;1.77;;;0.50;;
13834;SDS011;6988;52.614;13.500;2023-12-20T15:11:37;2.90;;;1.00;;
13834;SDS011;6988;52.614;13.500;2023-12-20T15:22:21;2.73;;;0.97;;
13834;SDS011;6988;52.614;13.500;2023-12-20T15:27:13;5.77;;;1.20;;
13834;SDS011;6988;52.614;13.500;2023-12-20T15:37:54;4.47;;;1.30;;
13834;SDS011;6988;52.614;13.500;2023-12-20T15:43:41;3.20;;;0.97;;
13834;SDS011;6988;52.614;13.500;2023-12-20T15:48:35;6.23;;;1.63;;
13834;SDS011;6988;52.614;13.500;2023-12-20T15:53:34;6.97;;;1.43;;
13834;SDS011;6988;52.614;13.500;2023-12-20T15:58:27;4.70;;;1.37;;
13834;SDS011;6988;52.614;13.500;2023-12-20T16:03:20;6.67;;;1.43;;
13834;SDS011;6988;52.614;13.500;2023-12-20T16:08:12;3.17;;;1.33;;
13834;SDS011;6988;52.614;13.500;2023-12-20T16:13:05;5.47;;;1.77;;
13834;SDS011;6988;52.614;13.500;2023-12-20T16:17:57;5.37;;;1.27;;
13834;SDS011;6988;52.614;13.500;2023-12-20T16:22:49;3.33;;;1.50;;
13834;SDS011;6988;52.614;13.500;2023-12-20T16:27:42;6.37;;;1.63;;
13834;SDS011;6988;52.614;13.500;2023-12-20T16:32:35;5.03;;;1.53;;
13834;SDS011;6988;52.614;13.500;2023-12-20T16:37:27;6.00;;;1.73;;
13834;SDS011;6988;52.614;13.500;2023-12-20T16:42:19;6.27;;;2.00;;
13834;SDS011;6988;52.614;13.500;2023-12-20T16:47:11;6.97;;;1.90;;
13834;SDS011;6988;52.614;13.500;2023-12-20T16:52:05;9.73;;;1.80;;
13834;SDS011;6988;52.614;13.500;2023-12-20T16:57:00;5.27;;;1.97;;
13834;SDS011;6988;52.614;13.500;2023-12-20T17:01:52;4.50;;;1.60;;
13834;SDS011;6988;52.614;13.500;2023-12-20T17:06:45;7.93;;;1.70;;
13834;SDS011;6988;52.614;13.500;2023-12-20T17:11:38;4.77;;;1.60;;
13834;SDS011;6988;52.614;13.500;2023-12-20T17:16:34;6.47;;;1.63;;
13834;SDS011;6988;52.614;13.500;2023-12-20T17:21:26;8.63;;;2.10;;
13834;SDS011;6988;52.614;13.500;2023-12-20T17:26:18;6.13;;;1.83;;
13834;SDS011;6988;52.614;13.500;2023-12-20T17:31:29;6.70;;;1.90;;
13834;SDS011;6988;52.614;13.500;2023-12-20T17:36:44;6.80;;;2.17;;
13834;SDS011;6988;52.614;13.500;2023-12-20T17:41:39;4.50;;;1.80;;
13834;SDS011;6988;52.614;13.500;2023-12-20T17:46:33;9.73;;;2.30;;
13834;SDS011;6988;52.614;13.500;2023-12-20T17:51:26;9.10;;;2.30;;
13834;SDS011;6988;52.614;13.500;2023-12-20T17:56:18;8.07;;;1.80;;
13834;SDS011;6988;52.614;13.500;2023-12-20T18:01:58;6.97;;;2.30;;
13834;SDS011;6988;52.614;13.500;2023-12-20T18:07:01;10.37;;;2.40;;
13834;SDS011;6988;52.614;13.500;2023-12-20T18:12:35;10.67;;;2.07;;
13834;SDS011;6988;52.614;13.500;2023-12-20T18:22:31;10.03;;;2.60;;
13834;SDS011;6988;52.614;13.500;2023-12-20T18:27:24;7.60;;;2.43;;
13834;SDS011;6988;52.614;13.500;2023-12-20T18:37:23;10.07;;;2.33;;
13834;SDS011;6988;52.614;13.500;2023-12-20T18:42:17;10.83;;;2.10;;
13834;SDS011;6988;52.614;13.500;2023-12-20T18:47:10;8.77;;;2.00;;
13834;SDS011;6988;52.614;13.500;2023-12-20T18:57:10;8.07;;;2.10;;
13834;SDS011;6988;52.614;13.500;2023-12-20T19:02:06;7.73;;;2.50;;
13834;SDS011;6988;52.614;13.500;2023-12-20T19:07:01;6.53;;;2.00;;
13834;SDS011;6988;52.614;13.500;2023-12-20T19:11:54;11.33;;;2.70;;
13834;SDS011;6988;52.614;13.500;2023-12-20T19:16:47;7.73;;;2.33;;
13834;SDS011;6988;52.614;13.500;2023-12-20T19:26:49;11.03;;;2.47;;
13834;SDS011;6988;52.614;13.500;2023-12-20T21:14:12;7.17;;;1.93;;
13834;SDS011;6988;52.614;13.500;2023-12-20T21:39:35;6.50;;;2.13;;
13834;SDS011;6988;52.614;13.500;2023-12-20T23:52:03;3.10;;;1.53;;
